sensor_id;sensor_type;location;lat;lon;timestamp;P1;durP1;ratioP1;P2;durP2;ratioP2
54831;SDS011;40730;53.068;6.572;2024-02-16T00:01:20;6.85;;;1.98;;
54831;SDS011;40730;53.068;6.572;2024-02-16T00:03:45;8.93;;;2.28;;
54831;SDS011;40730;53.068;6.572;2024-02-16T00:06:12;6.32;;;2.00;;
54831;SDS011;40730;53.068;6.572;2024-02-16T00:08:37;7.20;;;2.20;;
54831;SDS011;40730;53.068;6.572;2024-02-16T00:11:04;6.03;;;1.85;;
54831;SDS011;40730;53.068;6.572;2024-02-16T00:13:30;5.80;;;2.60;;
54831;SDS011;40730;53.068;6.572;2024-02-16T00:15:56;10.20;;;1.83;;
54831;SDS011;40730;53.068;6.572;2024-02-16T00:18:22;4.13;;;1.95;;
54831;SDS011;40730;53.068;6.572;2024-02-16T00:20:49;4.88;;;2.03;;
54831;SDS011;40730;53.068;6.572;2024-02-16T00:23:14;6.82;;;1.85;;
54831;SDS011;40730;53.068;6.572;2024-02-16T00:25:40;6.50;;;1.92;;
54831;SDS011;40730;53.068;6.572;2024-02-16T00:28:06;5.30;;;1.95;;
54831;SDS011;40730;53.068;6.572;2024-02-16T00:30:32;7.30;;;2.00;;
54831;SDS011;40730;53.068;6.572;2024-02-16T00:32:58;4.88;;;1.67;;
54831;SDS011;40730;53.068;6.572;2024-02-16T00:35:23;2.42;;;1.20;;
54831;SDS011;40730;53.068;6.572;2024-02-16T00:37:49;2.90;;;1.48;;
54831;SDS011;40730;53.068;6.572;2024-02-16T00:40:14;6.88;;;1.98;;
54831;SDS011;40730;53.068;6.572;2024-02-16T00:42:40;3.83;;;1.52;;
54831;SDS011;40730;53.068;6.572;2024-02-16T00:45:06;5.72;;;1.55;;
54831;SDS011;40730;53.068;6.572;2024-02-16T00:47:32;4.13;;;1.55;;
54831;SDS011;40730;53.068;6.572;2024-02-16T00:49:58;2.40;;;1.13;;
54831;SDS011;40730;53.068;6.572;2024-02-16T00:52:23;3.42;;;1.33;;
54831;SDS011;40730;53.068;6.572;2024-02-16T00:54:49;6.30;;;1.65;;
54831;SDS011;40730;53.068;6.572;2024-02-16T00:57:15;5.75;;;1.10;;
54831;SDS011;40730;53.068;6.572;2024-02-16T00:59:41;4.40;;;1.55;;
54831;SDS011;40730;53.068;6.572;2024-02-16T01:02:07;4.18;;;1.35;;
54831;SDS011;40730;53.068;6.572;2024-02-16T01:04:34;4.43;;;1.20;;
54831;SDS011;40730;53.068;6.572;2024-02-16T01:07:00;6.15;;;1.65;;
54831;SDS011;40730;53.068;6.572;2024-02-16T01:09:26;4.50;;;1.50;;
54831;SDS011;40730;53.068;6.572;2024-02-16T01:11:51;4.05;;;1.40;;
54831;SDS011;40730;53.068;6.572;2024-02-16T01:14:17;4.53;;;1.40;;
54831;SDS011;40730;53.068;6.572;2024-02-16T01:16:43;3.53;;;1.15;;
54831;SDS011;40730;53.068;6.572;2024-02-16T01:19:09;4.53;;;1.65;;
54831;SDS011;40730;53.068;6.572;2024-02-16T01:21:35;5.38;;;1.20;;
54831;SDS011;40730;53.068;6.572;2024-02-16T01:24:00;7.93;;;1.20;;
54831;SDS011;40730;53.068;6.572;2024-02-16T01:26:27;4.00;;;1.08;;
54831;SDS011;40730;53.068;6.572;2024-02-16T01:28:53;4.45;;;1.60;;
54831;SDS011;40730;53.068;6.572;2024-02-16T01:31:19;8.20;;;2.42;;
54831;SDS011;40730;53.068;6.572;2024-02-16T01:33:44;7.93;;;1.30;;
54831;SDS011;40730;53.068;6.572;2024-02-16T01:36:10;4.78;;;1.35;;
54831;SDS011;40730;53.068;6.572;2024-02-16T01:38:35;6.75;;;1.20;;
54831;SDS011;40730;53.068;6.572;2024-02-16T01:41:01;6.55;;;1.20;;
54831;SDS011;40730;53.068;6.572;2024-02-16T01:43:27;4.60;;;1.55;;
54831;SDS011;40730;53.068;6.572;2024-02-16T01:45:52;5.63;;;1.27;;
54831;SDS011;40730;53.068;6.572;2024-02-16T01:48:19;3.95;;;1.27;;
54831;SDS011;40730;53.068;6.572;2024-02-16T01:50:45;4.03;;;1.30;;
54831;SDS011;40730;53.068;6.572;2024-02-16T01:53:14;3.03;;;1.17;;
54831;SDS011;40730;53.068;6.572;2024-02-16T01:55:44;4.32;;;1.58;;
54831;SDS011;40730;53.068;6.572;2024-02-16T01:58:10;3.95;;;1.15;;
54831;SDS011;40730;53.068;6.572;2024-02-16T02:00:36;3.17;;;1.23;;
54831;SDS011;40730;53.068;6.572;2024-02-16T02:03:02;5.05;;;1.15;;
54831;SDS011;40730;53.068;6.572;2024-02-16T02:05:28;6.32;;;1.55;;
54831;SDS011;40730;53.068;6.572;2024-02-16T02:07:54;4.53;;;1.30;;
54831;SDS011;40730;53.068;6.572;2024-02-16T02:10:20;4.85;;;1.10;;
54831;SDS011;40730;53.068;6.572;2024-02-16T02:12:45;7.03;;;1.40;;
54831;SDS011;40730;53.068;6.572;2024-02-16T02:15:11;4.28;;;1.42;;
54831;SDS011;40730;53.068;6.572;2024-02-16T02:17:37;2.67;;;1.30;;
54831;SDS011;40730;53.068;6.572;2024-02-16T02:20:03;4.60;;;1.25;;
54831;SDS011;40730;53.068;6.572;2024-02-16T02:22:33;6.40;;;2.63;;
54831;SDS011;40730;53.068;6.572;2024-02-16T02:24:58;5.53;;;1.25;;
54831;SDS011;40730;53.068;6.572;2024-02-16T02:27:24;4.88;;;1.48;;
54831;SDS011;40730;53.068;6.572;2024-02-16T02:29:50;5.00;;;1.40;;
54831;SDS011;40730;53.068;6.572;2024-02-16T02:32:16;3.95;;;1.90;;
54831;SDS011;40730;53.068;6.572;2024-02-16T02:34:42;7.10;;;1.30;;
54831;SDS011;40730;53.068;6.572;2024-02-16T02:37:08;4.57;;;1.40;;
54831;SDS011;40730;53.068;6.572;2024-02-16T02:39:34;3.20;;;1.33;;
54831;SDS011;40730;53.068;6.572;2024-02-16T02:42:00;6.55;;;1.45;;
54831;SDS011;40730;53.068;6.572;2024-02-16T02:44:25;5.40;;;1.50;;
54831;SDS011;40730;53.068;6.572;2024-02-16T02:46:51;5.28;;;1.10;;
54831;SDS011;40730;53.068;6.572;2024-02-16T02:49:17;4.28;;;1.60;;
54831;SDS011;40730;53.068;6.572;2024-02-16T02:51:43;6.03;;;1.63;;
54831;SDS011;40730;53.068;6.572;2024-02-16T02:54:08;4.47;;;1.60;;
54831;SDS011;40730;53.068;6.572;2024-02-16T02:56:34;7.60;;;1.70;;
54831;SDS011;40730;53.068;6.572;2024-02-16T02:59:00;6.18;;;1.70;;
54831;SDS011;40730;53.068;6.572;2024-02-16T03:01:26;3.05;;;1.10;;
54831;SDS011;40730;53.068;6.572;2024-02-16T03:03:51;3.05;;;1.45;;
54831;SDS011;40730;53.068;6.572;2024-02-16T03:06:20;3.83;;;1.30;;
54831;SDS011;40730;53.068;6.572;2024-02-16T03:08:46;5.30;;;1.13;;
54831;SDS011;40730;53.068;6.572;2024-02-16T03:11:12;6.85;;;1.90;;
54831;SDS011;40730;53.068;6.572;2024-02-16T03:13:38;3.10;;;1.00;;
54831;SDS011;40730;53.068;6.572;2024-02-16T03:16:03;5.60;;;1.50;;
54831;SDS011;40730;53.068;6.572;2024-02-16T03:18:33;5.00;;;1.98;;
54831;SDS011;40730;53.068;6.572;2024-02-16T03:21:01;5.85;;;1.60;;
54831;SDS011;40730;53.068;6.572;2024-02-16T03:23:27;5.68;;;2.00;;
54831;SDS011;40730;53.068;6.572;2024-02-16T03:25:53;4.60;;;1.33;;
54831;SDS011;40730;53.068;6.572;2024-02-16T03:28:18;7.82;;;1.85;;
54831;SDS011;40730;53.068;6.572;2024-02-16T03:30:45;6.95;;;1.75;;
54831;SDS011;40730;53.068;6.572;2024-02-16T03:33:12;3.92;;;1.38;;
54831;SDS011;40730;53.068;6.572;2024-02-16T03:35:41;5.65;;;2.35;;
54831;SDS011;40730;53.068;6.572;2024-02-16T03:38:06;4.20;;;1.30;;
54831;SDS011;40730;53.068;6.572;2024-02-16T03:40:33;3.15;;;1.35;;
54831;SDS011;40730;53.068;6.572;2024-02-16T03:42:58;4.03;;;1.40;;
54831;SDS011;40730;53.068;6.572;2024-02-16T03:45:24;5.03;;;1.60;;
54831;SDS011;40730;53.068;6.572;2024-02-16T03:47:52;2.72;;;1.50;;
54831;SDS011;40730;53.068;6.572;2024-02-16T03:50:18;3.75;;;1.38;;
54831;SDS011;40730;53.068;6.572;2024-02-16T03:52:44;6.65;;;1.35;;
54831;SDS011;40730;53.068;6.572;2024-02-16T03:55:10;4.43;;;1.75;;
54831;SDS011;40730;53.068;6.572;2024-02-16T03:57:36;6.10;;;1.67;;
54831;SDS011;40730;53.068;6.572;2024-02-16T04:00:03;3.92;;;1.30;;
54831;SDS011;40730;53.068;6.572;2024-02-16T04:02:31;3.65;;;1.33;;
54831;SDS011;40730;53.068;6.572;2024-02-16T04:04:57;6.00;;;1.90;;
54831;SDS011;40730;53.068;6.572;2024-02-16T04:07:22;4.63;;;1.48;;
54831;SDS011;40730;53.068;6.572;2024-02-16T04:09:48;2.95;;;1.30;;
54831;SDS011;40730;53.068;6.572;2024-02-16T04:12:14;3.50;;;1.15;;
54831;SDS011;40730;53.068;6.572;2024-02-16T04:14:40;3.85;;;1.42;;
54831;SDS011;40730;53.068;6.572;2024-02-16T04:17:06;4.10;;;1.60;;
54831;SDS011;40730;53.068;6.572;2024-02-16T04:19:32;2.63;;;1.30;;
54831;SDS011;40730;53.068;6.572;2024-02-16T04:21:58;2.78;;;1.40;;
54831;SDS011;40730;53.068;6.572;2024-02-16T04:24:23;4.47;;;1.30;;
54831;SDS011;40730;53.068;6.572;2024-02-16T04:26:49;2.78;;;1.20;;
54831;SDS011;40730;53.068;6.572;2024-02-16T04:29:15;4.15;;;1.38;;
54831;SDS011;40730;53.068;6.572;2024-02-16T04:31:41;4.05;;;1.63;;
54831;SDS011;40730;53.068;6.572;2024-02-16T04:34:10;2.00;;;1.13;;
54831;SDS011;40730;53.068;6.572;2024-02-16T04:36:36;4.13;;;1.55;;
54831;SDS011;40730;53.068;6.572;2024-02-16T04:39:01;8.13;;;1.20;;
54831;SDS011;40730;53.068;6.572;2024-02-16T04:41:27;7.25;;;1.70;;
54831;SDS011;40730;53.068;6.572;2024-02-16T04:43:53;4.15;;;1.70;;
54831;SDS011;40730;53.068;6.572;2024-02-16T04:46:18;4.90;;;1.27;;
54831;SDS011;40730;53.068;6.572;2024-02-16T04:48:44;4.38;;;1.52;;
54831;SDS011;40730;53.068;6.572;2024-02-16T04:51:10;2.72;;;1.58;;
54831;SDS011;40730;53.068;6.572;2024-02-16T04:53:36;3.30;;;1.80;;
54831;SDS011;40730;53.068;6.572;2024-02-16T04:56:02;5.15;;;1.75;;
54831;SDS011;40730;53.068;6.572;2024-02-16T04:58:29;4.53;;;1.20;;
54831;SDS011;40730;53.068;6.572;2024-02-16T05:00:55;1.90;;;1.17;;
54831;SDS011;40730;53.068;6.572;2024-02-16T05:03:21;3.60;;;1.30;;
54831;SDS011;40730;53.068;6.572;2024-02-16T05:05:46;4.13;;;1.45;;
54831;SDS011;40730;53.068;6.572;2024-02-16T05:08:12;3.60;;;1.58;;
54831;SDS011;40730;53.068;6.572;2024-02-16T05:10:38;3.40;;;1.13;;
54831;SDS011;40730;53.068;6.572;2024-02-16T05:13:04;3.13;;;1.38;;
54831;SDS011;40730;53.068;6.572;2024-02-16T05:15:29;2.33;;;1.00;;
54831;SDS011;40730;53.068;6.572;2024-02-16T05:17:56;3.10;;;1.00;;
54831;SDS011;40730;53.068;6.572;2024-02-16T05:20:22;4.53;;;1.27;;
54831;SDS011;40730;53.068;6.572;2024-02-16T05:22:48;4.68;;;1.45;;
54831;SDS011;40730;53.068;6.572;2024-02-16T05:25:17;4.28;;;1.23;;
54831;SDS011;40730;53.068;6.572;2024-02-16T05:27:44;2.30;;;1.05;;
54831;SDS011;40730;53.068;6.572;2024-02-16T05:30:10;6.35;;;1.02;;
54831;SDS011;40730;53.068;6.572;2024-02-16T05:32:41;1.92;;;1.40;;
54831;SDS011;40730;53.068;6.572;2024-02-16T05:35:08;3.15;;;1.23;;
54831;SDS011;40730;53.068;6.572;2024-02-16T05:37:37;5.20;;;1.50;;
54831;SDS011;40730;53.068;6.572;2024-02-16T05:40:09;2.65;;;1.40;;
54831;SDS011;40730;53.068;6.572;2024-02-16T05:42:47;4.82;;;1.52;;
54831;SDS011;40730;53.068;6.572;2024-02-16T05:45:14;3.38;;;1.23;;
54831;SDS011;40730;53.068;6.572;2024-02-16T05:47:41;3.47;;;1.35;;
54831;SDS011;40730;53.068;6.572;2024-02-16T05:50:08;3.15;;;1.30;;
54831;SDS011;40730;53.068;6.572;2024-02-16T05:52:34;3.88;;;1.48;;
54831;SDS011;40730;53.068;6.572;2024-02-16T05:55:00;4.68;;;1.38;;
54831;SDS011;40730;53.068;6.572;2024-02-16T05:57:25;4.60;;;1.58;;
54831;SDS011;40730;53.068;6.572;2024-02-16T05:59:51;3.38;;;1.23;;
54831;SDS011;40730;53.068;6.572;2024-02-16T06:02:17;3.00;;;1.45;;
54831;SDS011;40730;53.068;6.572;2024-02-16T06:04:43;4.55;;;1.50;;
54831;SDS011;40730;53.068;6.572;2024-02-16T06:07:08;3.67;;;1.75;;
54831;SDS011;40730;53.068;6.572;2024-02-16T06:09:36;5.13;;;1.48;;
54831;SDS011;40730;53.068;6.572;2024-02-16T06:12:05;3.58;;;1.10;;
54831;SDS011;40730;53.068;6.572;2024-02-16T06:14:32;5.25;;;1.10;;
54831;SDS011;40730;53.068;6.572;2024-02-16T06:16:58;2.97;;;1.20;;
54831;SDS011;40730;53.068;6.572;2024-02-16T06:19:24;3.75;;;1.35;;
54831;SDS011;40730;53.068;6.572;2024-02-16T06:21:50;2.75;;;1.38;;
54831;SDS011;40730;53.068;6.572;2024-02-16T06:24:16;2.70;;;1.52;;
54831;SDS011;40730;53.068;6.572;2024-02-16T06:26:42;4.43;;;1.20;;
54831;SDS011;40730;53.068;6.572;2024-02-16T06:29:08;4.32;;;1.38;;
54831;SDS011;40730;53.068;6.572;2024-02-16T06:31:34;6.45;;;1.40;;
54831;SDS011;40730;53.068;6.572;2024-02-16T06:33:59;6.18;;;1.55;;
54831;SDS011;40730;53.068;6.572;2024-02-16T06:36:25;6.85;;;1.27;;
54831;SDS011;40730;53.068;6.572;2024-02-16T06:38:50;5.10;;;1.23;;
54831;SDS011;40730;53.068;6.572;2024-02-16T06:41:16;6.63;;;1.33;;
54831;SDS011;40730;53.068;6.572;2024-02-16T06:43:42;4.80;;;1.25;;
54831;SDS011;40730;53.068;6.572;2024-02-16T06:46:08;5.95;;;1.88;;
54831;SDS011;40730;53.068;6.572;2024-02-16T06:48:33;3.53;;;1.10;;
54831;SDS011;40730;53.068;6.572;2024-02-16T06:50:59;3.30;;;1.20;;
54831;SDS011;40730;53.068;6.572;2024-02-16T06:53:25;3.70;;;1.20;;
54831;SDS011;40730;53.068;6.572;2024-02-16T06:55:51;3.65;;;1.50;;
54831;SDS011;40730;53.068;6.572;2024-02-16T06:58:16;7.00;;;1.50;;
54831;SDS011;40730;53.068;6.572;2024-02-16T07:00:42;5.18;;;1.40;;
54831;SDS011;40730;53.068;6.572;2024-02-16T07:03:08;5.45;;;1.33;;
54831;SDS011;40730;53.068;6.572;2024-02-16T07:05:34;3.38;;;1.17;;
54831;SDS011;40730;53.068;6.572;2024-02-16T07:08:00;3.85;;;1.77;;
54831;SDS011;40730;53.068;6.572;2024-02-16T07:10:25;2.15;;;1.38;;
54831;SDS011;40730;53.068;6.572;2024-02-16T07:12:51;3.28;;;1.30;;
54831;SDS011;40730;53.068;6.572;2024-02-16T07:15:17;3.22;;;1.38;;
54831;SDS011;40730;53.068;6.572;2024-02-16T07:17:42;4.75;;;1.55;;
54831;SDS011;40730;53.068;6.572;2024-02-16T07:20:08;2.45;;;1.17;;
54831;SDS011;40730;53.068;6.572;2024-02-16T07:22:34;2.95;;;1.52;;
54831;SDS011;40730;53.068;6.572;2024-02-16T07:24:59;3.50;;;1.20;;
54831;SDS011;40730;53.068;6.572;2024-02-16T07:27:25;4.45;;;1.08;;
54831;SDS011;40730;53.068;6.572;2024-02-16T07:29:51;3.78;;;1.13;;
54831;SDS011;40730;53.068;6.572;2024-02-16T07:32:17;2.78;;;1.33;;
54831;SDS011;40730;53.068;6.572;2024-02-16T07:34:46;4.70;;;1.38;;
54831;SDS011;40730;53.068;6.572;2024-02-16T07:37:12;4.28;;;1.23;;
54831;SDS011;40730;53.068;6.572;2024-02-16T07:39:38;4.55;;;1.45;;
54831;SDS011;40730;53.068;6.572;2024-02-16T07:42:05;5.43;;;1.15;;
54831;SDS011;40730;53.068;6.572;2024-02-16T07:44:34;2.97;;;1.30;;
54831;SDS011;40730;53.068;6.572;2024-02-16T07:47:00;7.30;;;1.35;;
54831;SDS011;40730;53.068;6.572;2024-02-16T07:49:26;2.85;;;1.23;;
54831;SDS011;40730;53.068;6.572;2024-02-16T07:51:52;3.40;;;1.60;;
54831;SDS011;40730;53.068;6.572;2024-02-16T07:54:17;4.35;;;1.65;;
54831;SDS011;40730;53.068;6.572;2024-02-16T07:56:43;4.13;;;1.90;;
54831;SDS011;40730;53.068;6.572;2024-02-16T07:59:08;5.55;;;1.48;;
54831;SDS011;40730;53.068;6.572;2024-02-16T08:01:34;2.58;;;1.27;;
54831;SDS011;40730;53.068;6.572;2024-02-16T08:04:00;4.10;;;1.15;;
54831;SDS011;40730;53.068;6.572;2024-02-16T08:06:26;4.13;;;1.55;;
54831;SDS011;40730;53.068;6.572;2024-02-16T08:08:52;3.42;;;1.20;;
54831;SDS011;40730;53.068;6.572;2024-02-16T08:11:18;2.92;;;1.17;;
54831;SDS011;40730;53.068;6.572;2024-02-16T08:13:45;2.95;;;1.25;;
54831;SDS011;40730;53.068;6.572;2024-02-16T08:16:10;2.72;;;1.42;;
54831;SDS011;40730;53.068;6.572;2024-02-16T08:18:36;7.00;;;1.55;;
54831;SDS011;40730;53.068;6.572;2024-02-16T08:21:02;5.20;;;1.70;;
54831;SDS011;40730;53.068;6.572;2024-02-16T08:23:28;2.65;;;1.73;;
54831;SDS011;40730;53.068;6.572;2024-02-16T08:25:53;3.40;;;1.40;;
54831;SDS011;40730;53.068;6.572;2024-02-16T08:28:19;7.07;;;1.83;;
54831;SDS011;40730;53.068;6.572;2024-02-16T08:30:44;7.28;;;1.65;;
54831;SDS011;40730;53.068;6.572;2024-02-16T08:33:10;4.15;;;1.70;;
54831;SDS011;40730;53.068;6.572;2024-02-16T08:35:37;3.25;;;1.38;;
54831;SDS011;40730;53.068;6.572;2024-02-16T08:38:04;3.65;;;1.98;;
54831;SDS011;40730;53.068;6.572;2024-02-16T08:40:30;4.10;;;1.75;;
54831;SDS011;40730;53.068;6.572;2024-02-16T08:42:55;3.40;;;1.40;;
54831;SDS011;40730;53.068;6.572;2024-02-16T08:45:21;4.45;;;1.52;;
54831;SDS011;40730;53.068;6.572;2024-02-16T08:47:46;2.40;;;1.75;;
54831;SDS011;40730;53.068;6.572;2024-02-16T08:50:12;5.25;;;1.70;;
54831;SDS011;40730;53.068;6.572;2024-02-16T08:52:38;9.05;;;1.85;;
54831;SDS011;40730;53.068;6.572;2024-02-16T08:55:04;7.43;;;2.58;;
54831;SDS011;40730;53.068;6.572;2024-02-16T08:57:31;5.45;;;1.55;;
54831;SDS011;40730;53.068;6.572;2024-02-16T08:59:57;4.70;;;1.83;;
54831;SDS011;40730;53.068;6.572;2024-02-16T09:02:22;6.53;;;1.83;;
54831;SDS011;40730;53.068;6.572;2024-02-16T09:04:48;4.05;;;1.63;;
54831;SDS011;40730;53.068;6.572;2024-02-16T09:07:14;4.32;;;1.80;;
54831;SDS011;40730;53.068;6.572;2024-02-16T09:09:39;4.57;;;2.08;;
54831;SDS011;40730;53.068;6.572;2024-02-16T09:12:05;4.05;;;1.73;;
54831;SDS011;40730;53.068;6.572;2024-02-16T09:14:31;4.70;;;2.10;;
54831;SDS011;40730;53.068;6.572;2024-02-16T09:16:57;6.07;;;1.85;;
54831;SDS011;40730;53.068;6.572;2024-02-16T09:19:22;8.50;;;2.30;;
54831;SDS011;40730;53.068;6.572;2024-02-16T09:21:48;3.83;;;1.80;;
54831;SDS011;40730;53.068;6.572;2024-02-16T09:24:16;2.83;;;1.80;;
54831;SDS011;40730;53.068;6.572;2024-02-16T09:26:43;4.43;;;2.35;;
54831;SDS011;40730;53.068;6.572;2024-02-16T09:29:11;4.57;;;2.28;;
54831;SDS011;40730;53.068;6.572;2024-02-16T09:31:38;4.38;;;2.20;;
54831;SDS011;40730;53.068;6.572;2024-02-16T09:34:04;6.32;;;2.10;;
54831;SDS011;40730;53.068;6.572;2024-02-16T09:36:30;3.22;;;2.20;;
54831;SDS011;40730;53.068;6.572;2024-02-16T09:38:56;5.60;;;2.13;;
54831;SDS011;40730;53.068;6.572;2024-02-16T09:41:22;5.70;;;2.35;;
54831;SDS011;40730;53.068;6.572;2024-02-16T09:43:48;4.47;;;1.77;;
54831;SDS011;40730;53.068;6.572;2024-02-16T09:46:13;5.60;;;2.13;;
54831;SDS011;40730;53.068;6.572;2024-02-16T09:48:41;4.95;;;2.20;;
54831;SDS011;40730;53.068;6.572;2024-02-16T09:51:13;5.63;;;2.58;;
54831;SDS011;40730;53.068;6.572;2024-02-16T09:53:39;3.88;;;2.20;;
54831;SDS011;40730;53.068;6.572;2024-02-16T09:56:05;6.85;;;2.80;;
54831;SDS011;40730;53.068;6.572;2024-02-16T09:58:37;5.70;;;2.53;;
54831;SDS011;40730;53.068;6.572;2024-02-16T10:01:02;4.07;;;2.58;;
54831;SDS011;40730;53.068;6.572;2024-02-16T10:03:30;5.20;;;2.40;;
54831;SDS011;40730;53.068;6.572;2024-02-16T10:06:06;5.45;;;2.20;;
54831;SDS011;40730;53.068;6.572;2024-02-16T10:08:33;5.40;;;2.80;;
54831;SDS011;40730;53.068;6.572;2024-02-16T10:11:03;7.75;;;2.65;;
54831;SDS011;40730;53.068;6.572;2024-02-16T10:13:30;4.60;;;2.40;;
54831;SDS011;40730;53.068;6.572;2024-02-16T10:16:09;4.28;;;2.28;;
54831;SDS011;40730;53.068;6.572;2024-02-16T10:18:37;5.00;;;2.70;;
54831;SDS011;40730;53.068;6.572;2024-02-16T10:21:03;6.68;;;2.47;;
54831;SDS011;40730;53.068;6.572;2024-02-16T10:23:29;6.18;;;3.15;;
54831;SDS011;40730;53.068;6.572;2024-02-16T10:25:55;3.90;;;2.97;;
54831;SDS011;40730;53.068;6.572;2024-02-16T10:28:21;3.65;;;3.20;;
54831;SDS011;40730;53.068;6.572;2024-02-16T10:30:52;3.70;;;3.22;;
54831;SDS011;40730;53.068;6.572;2024-02-16T10:33:24;5.13;;;3.40;;
54831;SDS011;40730;53.068;6.572;2024-02-16T10:35:53;4.22;;;2.97;;
54831;SDS011;40730;53.068;6.572;2024-02-16T10:38:21;3.92;;;3.05;;
54831;SDS011;40730;53.068;6.572;2024-02-16T10:40:47;12.30;;;4.43;;
54831;SDS011;40730;53.068;6.572;2024-02-16T10:43:14;6.70;;;3.10;;
54831;SDS011;40730;53.068;6.572;2024-02-16T10:45:42;7.10;;;3.47;;
54831;SDS011;40730;53.068;6.572;2024-02-16T10:48:10;5.93;;;3.50;;
54831;SDS011;40730;53.068;6.572;2024-02-16T10:50:36;6.03;;;4.30;;
54831;SDS011;40730;53.068;6.572;2024-02-16T10:53:04;7.53;;;4.10;;
54831;SDS011;40730;53.068;6.572;2024-02-16T10:55:34;9.20;;;4.57;;
54831;SDS011;40730;53.068;6.572;2024-02-16T10:58:00;8.85;;;4.68;;
54831;SDS011;40730;53.068;6.572;2024-02-16T11:00:25;6.40;;;4.70;;
54831;SDS011;40730;53.068;6.572;2024-02-16T11:02:55;6.95;;;4.95;;
54831;SDS011;40730;53.068;6.572;2024-02-16T11:08:02;7.05;;;5.75;;
54831;SDS011;40730;53.068;6.572;2024-02-16T11:10:28;9.50;;;5.80;;
54831;SDS011;40730;53.068;6.572;2024-02-16T11:12:54;7.63;;;5.28;;
54831;SDS011;40730;53.068;6.572;2024-02-16T11:15:32;10.05;;;6.38;;
54831;SDS011;40730;53.068;6.572;2024-02-16T11:18:03;12.63;;;6.95;;
54831;SDS011;40730;53.068;6.572;2024-02-16T11:20:36;9.23;;;7.38;;
54831;SDS011;40730;53.068;6.572;2024-02-16T11:23:08;10.93;;;6.95;;
54831;SDS011;40730;53.068;6.572;2024-02-16T11:25:34;12.27;;;7.85;;
54831;SDS011;40730;53.068;6.572;2024-02-16T11:28:01;16.58;;;9.32;;
54831;SDS011;40730;53.068;6.572;2024-02-16T11:30:27;17.67;;;10.55;;
54831;SDS011;40730;53.068;6.572;2024-02-16T11:32:53;16.08;;;10.00;;
54831;SDS011;40730;53.068;6.572;2024-02-16T11:35:18;22.45;;;12.05;;
54831;SDS011;40730;53.068;6.572;2024-02-16T11:37:44;22.35;;;12.05;;
54831;SDS011;40730;53.068;6.572;2024-02-16T11:40:12;21.15;;;11.55;;
54831;SDS011;40730;53.068;6.572;2024-02-16T11:42:39;29.25;;;13.88;;
54831;SDS011;40730;53.068;6.572;2024-02-16T11:45:09;30.15;;;15.25;;
54831;SDS011;40730;53.068;6.572;2024-02-16T11:47:36;35.33;;;15.50;;
54831;SDS011;40730;53.068;6.572;2024-02-16T11:50:11;26.65;;;14.02;;
54831;SDS011;40730;53.068;6.572;2024-02-16T11:52:39;34.50;;;15.07;;
54831;SDS011;40730;53.068;6.572;2024-02-16T11:55:09;19.40;;;11.25;;
54831;SDS011;40730;53.068;6.572;2024-02-16T11:57:40;15.90;;;9.48;;
54831;SDS011;40730;53.068;6.572;2024-02-16T12:00:06;12.50;;;7.75;;
54831;SDS011;40730;53.068;6.572;2024-02-16T12:02:39;11.27;;;7.43;;
54831;SDS011;40730;53.068;6.572;2024-02-16T12:05:05;12.73;;;6.78;;
54831;SDS011;40730;53.068;6.572;2024-02-16T12:07:32;12.93;;;7.45;;
54831;SDS011;40730;53.068;6.572;2024-02-16T12:09:59;11.25;;;6.50;;
54831;SDS011;40730;53.068;6.572;2024-02-16T12:12:26;14.23;;;6.25;;
54831;SDS011;40730;53.068;6.572;2024-02-16T12:14:55;15.70;;;7.88;;
54831;SDS011;40730;53.068;6.572;2024-02-16T12:17:22;12.57;;;7.10;;
54831;SDS011;40730;53.068;6.572;2024-02-16T12:19:49;14.73;;;8.20;;
54831;SDS011;40730;53.068;6.572;2024-02-16T12:22:20;10.80;;;6.15;;
54831;SDS011;40730;53.068;6.572;2024-02-16T12:24:46;13.00;;;6.57;;
54831;SDS011;40730;53.068;6.572;2024-02-16T12:27:13;13.50;;;7.63;;
54831;SDS011;40730;53.068;6.572;2024-02-16T12:29:39;11.27;;;7.13;;
54831;SDS011;40730;53.068;6.572;2024-02-16T12:32:05;15.13;;;8.25;;
54831;SDS011;40730;53.068;6.572;2024-02-16T12:34:31;13.68;;;7.47;;
54831;SDS011;40730;53.068;6.572;2024-02-16T12:36:56;12.43;;;7.50;;
54831;SDS011;40730;53.068;6.572;2024-02-16T12:39:22;14.98;;;8.57;;
54831;SDS011;40730;53.068;6.572;2024-02-16T12:41:48;13.93;;;8.52;;
54831;SDS011;40730;53.068;6.572;2024-02-16T12:44:14;14.38;;;7.28;;
54831;SDS011;40730;53.068;6.572;2024-02-16T12:46:40;11.85;;;7.40;;
54831;SDS011;40730;53.068;6.572;2024-02-16T12:49:07;13.23;;;7.38;;
54831;SDS011;40730;53.068;6.572;2024-02-16T12:51:33;16.50;;;7.60;;
54831;SDS011;40730;53.068;6.572;2024-02-16T12:53:59;12.10;;;7.35;;
54831;SDS011;40730;53.068;6.572;2024-02-16T12:56:28;11.43;;;6.78;;
54831;SDS011;40730;53.068;6.572;2024-02-16T12:58:54;11.50;;;6.65;;
54831;SDS011;40730;53.068;6.572;2024-02-16T13:01:20;12.35;;;6.53;;
54831;SDS011;40730;53.068;6.572;2024-02-16T13:03:46;8.55;;;5.25;;
54831;SDS011;40730;53.068;6.572;2024-02-16T13:06:12;8.82;;;5.55;;
54831;SDS011;40730;53.068;6.572;2024-02-16T13:08:38;9.23;;;5.13;;
54831;SDS011;40730;53.068;6.572;2024-02-16T13:11:03;9.18;;;4.40;;
54831;SDS011;40730;53.068;6.572;2024-02-16T13:13:30;8.73;;;5.30;;
54831;SDS011;40730;53.068;6.572;2024-02-16T13:15:56;7.28;;;4.53;;
54831;SDS011;40730;53.068;6.572;2024-02-16T13:18:23;7.25;;;5.00;;
54831;SDS011;40730;53.068;6.572;2024-02-16T13:20:49;5.03;;;3.10;;
54831;SDS011;40730;53.068;6.572;2024-02-16T13:23:15;4.95;;;3.30;;
54831;SDS011;40730;53.068;6.572;2024-02-16T13:25:40;8.15;;;3.75;;
54831;SDS011;40730;53.068;6.572;2024-02-16T13:28:06;3.13;;;2.78;;
54831;SDS011;40730;53.068;6.572;2024-02-16T13:30:32;4.18;;;2.58;;
54831;SDS011;40730;53.068;6.572;2024-02-16T13:32:57;3.47;;;2.80;;
54831;SDS011;40730;53.068;6.572;2024-02-16T13:35:23;5.75;;;2.42;;
54831;SDS011;40730;53.068;6.572;2024-02-16T13:37:48;2.75;;;2.30;;
54831;SDS011;40730;53.068;6.572;2024-02-16T13:40:15;3.10;;;2.22;;
54831;SDS011;40730;53.068;6.572;2024-02-16T13:42:42;3.60;;;2.35;;
54831;SDS011;40730;53.068;6.572;2024-02-16T13:45:08;4.00;;;1.65;;
54831;SDS011;40730;53.068;6.572;2024-02-16T13:47:37;2.55;;;1.90;;
54831;SDS011;40730;53.068;6.572;2024-02-16T13:50:06;2.67;;;1.77;;
54831;SDS011;40730;53.068;6.572;2024-02-16T13:52:32;2.15;;;1.27;;
54831;SDS011;40730;53.068;6.572;2024-02-16T13:54:59;2.28;;;1.80;;
54831;SDS011;40730;53.068;6.572;2024-02-16T13:57:24;1.70;;;1.30;;
54831;SDS011;40730;53.068;6.572;2024-02-16T13:59:51;2.33;;;1.35;;
54831;SDS011;40730;53.068;6.572;2024-02-16T14:02:16;2.00;;;1.42;;
54831;SDS011;40730;53.068;6.572;2024-02-16T14:04:42;2.20;;;1.40;;
54831;SDS011;40730;53.068;6.572;2024-02-16T14:07:08;1.70;;;1.27;;
54831;SDS011;40730;53.068;6.572;2024-02-16T14:09:35;2.42;;;1.40;;
54831;SDS011;40730;53.068;6.572;2024-02-16T14:12:00;1.75;;;1.48;;
54831;SDS011;40730;53.068;6.572;2024-02-16T14:14:26;1.80;;;1.35;;
54831;SDS011;40730;53.068;6.572;2024-02-16T14:16:52;3.05;;;1.02;;
54831;SDS011;40730;53.068;6.572;2024-02-16T14:19:17;3.97;;;1.38;;
54831;SDS011;40730;53.068;6.572;2024-02-16T14:21:43;3.88;;;1.55;;
54831;SDS011;40730;53.068;6.572;2024-02-16T14:24:09;3.92;;;1.00;;
54831;SDS011;40730;53.068;6.572;2024-02-16T14:26:38;3.40;;;1.52;;
54831;SDS011;40730;53.068;6.572;2024-02-16T14:29:06;4.18;;;1.85;;
54831;SDS011;40730;53.068;6.572;2024-02-16T14:31:32;7.22;;;1.50;;
54831;SDS011;40730;53.068;6.572;2024-02-16T14:34:00;4.45;;;1.50;;
54831;SDS011;40730;53.068;6.572;2024-02-16T14:36:26;4.72;;;1.83;;
54831;SDS011;40730;53.068;6.572;2024-02-16T14:38:52;3.28;;;1.80;;
54831;SDS011;40730;53.068;6.572;2024-02-16T14:41:17;5.53;;;2.30;;
54831;SDS011;40730;53.068;6.572;2024-02-16T14:43:43;4.05;;;2.22;;